Time;durP1;ratioP1;P1;durP2;ratioP2;P2;SDS_P1;SDS_P2;PMS_P1;PMS_P2;Temp;Humidity;BMP_temperature;BMP_pressure;BME280_temperature;BME280_humidity;BME280_pressure;Samples;Min_cycle;Max_cycle;Signal;HPM_P1;HPM_P2
2022/11/19 00:01:55;;;;;;;3.88;3.53;;;4.40;99.90;;;;;;4998540;28;20604;-72
2022/11/19 00:04:21;;;;;;;4.00;3.72;;;4.40;99.90;;;;;;5001409;28;20205;-72
2022/11/19 00:06:46;;;;;;;4.70;4.13;;;4.40;99.90;;;;;;5003366;28;20174;-72
2022/11/19 00:09:13;;;;;;;3.55;3.30;;;4.30;99.90;;;;;;4992776;28;20189;-71
2022/11/19 00:14:23;;;;;;;3.80;3.47;;;4.10;99.90;;;;;;4992343;28;20216;-71
2022/11/19 00:16:49;;;;;;;4.03;3.80;;;4.00;99.90;;;;;;4990219;28;20178;-72
2022/11/19 00:19:14;;;;;;;3.38;3.17;;;4.00;99.90;;;;;;4992400;28;20186;-72
2022/11/19 00:21:40;;;;;;;2.95;2.75;;;3.90;99.90;;;;;;5006433;28;20178;-72
2022/11/19 00:24:06;;;;;;;3.85;3.55;;;3.80;99.90;;;;;;5004081;28;20560;-71
2022/11/19 00:26:32;;;;;;;3.47;3.28;;;3.90;99.90;;;;;;4994465;28;20190;-71
2022/11/19 00:28:58;;;;;;;3.80;3.50;;;3.90;99.90;;;;;;4992212;28;20309;-71
2022/11/19 00:31:23;;;;;;;3.08;2.92;;;4.00;99.90;;;;;;4993009;28;20194;-71
2022/11/19 00:33:49;;;;;;;4.30;2.90;;;4.00;99.90;;;;;;4990654;28;20198;-71
2022/11/19 00:36:15;;;;;;;4.30;3.35;;;3.90;99.90;;;;;;4996632;28;20181;-71
2022/11/19 00:38:41;;;;;;;3.53;3.22;;;3.90;99.90;;;;;;4998669;28;20173;-72
2022/11/19 00:41:06;;;;;;;3.55;3.35;;;3.80;99.90;;;;;;5003211;28;20189;-72
2022/11/19 00:43:47;;;;;;;6.78;3.40;;;3.80;99.90;;;;;;4985960;28;20225;-72
2022/11/19 00:46:14;;;;;;;3.17;2.97;;;3.90;99.90;;;;;;4993398;28;20610;-71
2022/11/19 00:48:39;;;;;;;3.50;3.30;;;3.80;99.90;;;;;;5000759;28;20521;-71
2022/11/19 00:51:07;;;;;;;3.47;3.20;;;3.80;99.90;;;;;;4994751;28;20265;-71
2022/11/19 00:53:32;;;;;;;3.38;3.17;;;3.90;99.90;;;;;;4991589;28;20225;-71
2022/11/19 00:56:19;;;;;;;3.85;3.65;;;3.90;99.90;;;;;;5007105;28;20552;-71
2022/11/19 00:58:45;;;;;;;3.15;2.95;;;4.00;99.90;;;;;;4984692;28;20224;-72
2022/11/19 01:01:12;;;;;;;3.40;3.17;;;4.00;99.90;;;;;;4999392;28;20174;-72
2022/11/19 01:03:39;;;;;;;3.20;3.00;;;4.00;99.90;;;;;;5004170;28;20205;-72
2022/11/19 01:06:05;;;;;;;3.33;3.13;;;3.90;99.90;;;;;;4994452;28;20707;-71
2022/11/19 01:08:31;;;;;;;3.38;3.15;;;3.80;99.90;;;;;;4993454;28;20190;-71
2022/11/19 01:11:18;;;;;;;3.22;3.03;;;3.80;99.90;;;;;;4999082;28;20177;-70
2022/11/19 01:13:44;;;;;;;3.40;3.20;;;3.80;99.90;;;;;;4996893;28;20235;-70
2022/11/19 01:16:16;;;;;;;3.70;3.50;;;3.90;99.90;;;;;;4999528;28;20178;-70
2022/11/19 01:18:43;;;;;;;3.90;3.60;;;3.80;99.90;;;;;;4989632;28;20261;-70
2022/11/19 01:21:10;;;;;;;3.55;3.30;;;3.80;99.90;;;;;;4995695;28;20533;-70
2022/11/19 01:23:36;;;;;;;4.53;4.22;;;3.60;99.90;;;;;;5003449;28;20197;-70
2022/11/19 01:26:02;;;;;;;4.25;3.95;;;3.70;99.90;;;;;;4999638;28;20193;-70
2022/11/19 01:28:28;;;;;;;4.07;3.70;;;3.60;99.90;;;;;;5012381;28;20683;-71
2022/11/19 01:30:54;;;;;;;4.18;3.88;;;3.50;99.90;;;;;;4995626;28;20189;-71
2022/11/19 01:33:21;;;;;;;4.63;4.22;;;3.60;99.90;;;;;;4995106;28;20201;-71
2022/11/19 01:36:31;;;;;;;4.70;4.30;;;3.60;99.90;;;;;;5001688;28;20194;-70
2022/11/19 01:38:56;;;;;;;5.05;4.65;;;3.60;99.90;;;;;;4997347;28;20174;-71
2022/11/19 01:41:31;;;;;;;4.70;4.35;;;3.50;99.90;;;;;;5000366;28;20873;-71
2022/11/19 01:44:00;;;;;;;5.22;4.82;;;3.40;99.90;;;;;;5002927;28;20215;-70
2022/11/19 01:46:28;;;;;;;6.45;5.85;;;3.40;99.90;;;;;;5011123;28;20617;-70
2022/11/19 01:49:08;;;;;;;6.20;5.68;;;3.40;99.90;;;;;;4994958;28;20186;-71
2022/11/19 01:51:58;;;;;;;7.28;6.57;;;3.50;99.90;;;;;;4998330;28;20188;-70
2022/11/19 01:54:45;;;;;;;6.70;6.10;;;3.50;99.90;;;;;;4994510;28;20217;-71
2022/11/19 01:57:13;;;;;;;7.35;6.65;;;3.40;99.90;;;;;;4998193;28;20232;-70
2022/11/19 01:59:42;;;;;;;7.00;6.40;;;3.40;99.90;;;;;;4993649;28;20696;-70
2022/11/19 02:02:07;;;;;;;7.43;6.70;;;3.40;99.90;;;;;;5000095;28;20180;-71
2022/11/19 02:04:35;;;;;;;6.78;6.18;;;3.40;99.90;;;;;;4993988;28;20197;-71
2022/11/19 02:07:01;;;;;;;7.05;6.35;;;3.30;99.90;;;;;;4994728;28;20189;-70
2022/11/19 02:09:27;;;;;;;8.57;7.70;;;3.30;99.90;;;;;;4995430;28;20214;-70
2022/11/19 02:12:08;;;;;;;7.78;7.07;;;3.40;99.90;;;;;;5000939;28;20292;-70
2022/11/19 02:15:04;;;;;;;8.15;7.35;;;3.30;99.90;;;;;;4993018;28;22285;-70
2022/11/19 02:17:56;;;;;;;8.93;7.63;;;3.20;99.90;;;;;;5008101;28;20184;-71
2022/11/19 02:20:30;;;;;;;7.93;7.13;;;3.30;99.90;;;;;;4990540;28;20182;-70
2022/11/19 02:23:14;;;;;;;8.32;7.63;;;3.30;99.90;;;;;;4993686;28;20197;-71
2022/11/19 02:26:20;;;;;;;10.30;9.30;;;3.30;99.90;;;;;;4993041;28;20201;-70
2022/11/19 02:28:51;;;;;;;9.38;8.07;;;3.30;99.90;;;;;;4986978;28;20181;-69
2022/11/19 02:31:34;;;;;;;9.23;8.30;;;3.30;99.90;;;;;;4997725;28;20652;-70
2022/11/19 02:34:22;;;;;;;10.25;9.15;;;3.00;99.90;;;;;;5005343;28;20319;-69
2022/11/19 02:37:06;;;;;;;8.77;7.70;;;2.70;99.90;;;;;;4987285;28;20196;-69
2022/11/19 02:39:50;;;;;;;10.57;9.43;;;2.50;99.90;;;;;;4992275;28;20829;-69
2022/11/19 02:42:34;;;;;;;8.75;7.85;;;2.50;99.90;;;;;;4995675;28;20265;-69
2022/11/19 02:45:07;;;;;;;10.27;9.20;;;2.10;99.90;;;;;;4988109;28;20206;-69
2022/11/19 02:47:39;;;;;;;8.85;7.95;;;1.90;99.90;;;;;;4988500;28;20309;-70
2022/11/19 02:50:20;;;;;;;9.25;8.25;;;1.70;99.90;;;;;;4998620;28;20819;-71
2022/11/19 02:52:47;;;;;;;9.17;8.27;;;1.60;99.90;;;;;;4993542;28;20245;-70
2022/11/19 02:55:15;;;;;;;10.27;8.40;;;1.40;99.90;;;;;;4986380;28;20212;-71
2022/11/19 02:58:06;;;;;;;10.57;9.00;;;1.30;99.90;;;;;;4993818;28;20207;-71
2022/11/19 03:06:25;;;;;;;11.97;10.50;;;1.10;99.90;;;;;;5001440;28;20189;-70
2022/11/19 03:08:51;;;;;;;12.47;10.20;;;1.10;99.90;;;;;;4986831;28;20547;-71
2022/11/19 03:11:23;;;;;;;10.83;9.57;;;1.00;99.90;;;;;;4989966;28;20603;-71
2022/11/19 03:16:46;;;;;;;13.20;10.27;;;0.90;99.90;;;;;;5008779;28;20651;-71
2022/11/19 03:19:25;;;;;;;14.27;9.90;;;0.80;99.90;;;;;;4990448;28;20174;-72
2022/11/19 03:22:06;;;;;;;11.83;10.00;;;0.80;99.90;;;;;;4990321;28;20185;-72
2022/11/19 03:24:38;;;;;;;13.90;9.70;;;0.80;99.90;;;;;;5002310;28;20227;-72
2022/11/19 03:27:31;;;;;;;14.50;11.17;;;0.80;99.90;;;;;;4995906;28;20186;-72
2022/11/19 03:30:00;;;;;;;13.23;10.83;;;0.70;99.90;;;;;;4993963;28;20178;-70
2022/11/19 03:32:36;;;;;;;14.63;10.33;;;0.70;99.90;;;;;;5005712;28;20295;-71
2022/11/19 03:35:09;;;;;;;15.73;10.53;;;0.70;99.90;;;;;;4992063;28;20267;-71
2022/11/19 03:37:38;;;;;;;13.40;10.43;;;0.60;99.90;;;;;;4994209;28;20184;-71
2022/11/19 03:40:07;;;;;;;14.23;11.67;;;0.70;99.90;;;;;;5006545;28;20177;-71
2022/11/19 03:42:33;;;;;;;14.27;11.27;;;0.60;99.90;;;;;;4993960;28;20280;-71
2022/11/19 03:45:16;;;;;;;14.00;11.20;;;0.60;99.90;;;;;;4998892;28;20209;-71
2022/11/19 03:47:43;;;;;;;14.93;11.13;;;0.70;99.90;;;;;;4992916;28;20202;-71
2022/11/19 03:50:20;;;;;;;14.10;10.43;;;0.60;99.90;;;;;;4990112;28;20190;-71
2022/11/19 03:52:46;;;;;;;13.27;10.27;;;0.60;99.90;;;;;;4985134;28;20237;-71
2022/11/19 03:55:12;;;;;;;11.13;9.80;;;0.70;99.90;;;;;;4991834;28;20252;-71
2022/11/19 03:57:38;;;;;;;12.87;10.73;;;0.60;99.90;;;;;;5007998;28;20170;-72
2022/11/19 04:00:04;;;;;;;13.77;10.30;;;0.60;99.90;;;;;;4994986;28;20188;-71
2022/11/19 04:02:30;;;;;;;15.43;10.30;;;0.60;99.90;;;;;;4996529;28;20215;-71
2022/11/19 04:04:56;;;;;;;14.17;10.97;;;0.70;99.90;;;;;;4993345;28;20763;-71
2022/11/19 04:07:22;;;;;;;16.77;13.13;;;0.60;99.90;;;;;;4998199;28;20216;-71
2022/11/19 04:09:48;;;;;;;24.83;14.93;;;0.60;99.90;;;;;;4990599;28;20644;-72
2022/11/19 04:12:23;;;;;;;28.27;16.77;;;0.60;99.90;;;;;;4991525;28;20220;-71
2022/11/19 04:14:49;;;;;;;23.47;16.57;;;0.60;99.90;;;;;;4995233;28;20206;-72
2022/11/19 04:17:16;;;;;;;23.67;15.90;;;0.70;99.90;;;;;;4991898;28;20566;-72
2022/11/19 04:19:42;;;;;;;27.70;18.03;;;0.70;99.90;;;;;;4984349;28;20186;-71
2022/11/19 04:22:08;;;;;;;26.13;18.00;;;0.70;99.90;;;;;;4992133;28;20174;-72
2022/11/19 04:24:33;;;;;;;26.30;17.37;;;0.70;99.90;;;;;;4990435;28;20216;-72
2022/11/19 04:26:59;;;;;;;24.50;16.30;;;0.70;99.90;;;;;;4994415;28;20193;-73
2022/11/19 04:29:25;;;;;;;29.03;19.37;;;0.80;99.90;;;;;;4993185;28;20181;-71
2022/11/19 04:31:50;;;;;;;26.87;16.37;;;0.80;99.90;;;;;;5005303;28;20224;-71
2022/11/19 04:34:16;;;;;;;25.80;18.83;;;0.70;99.90;;;;;;4990867;28;20193;-71
2022/11/19 04:36:41;;;;;;;26.93;18.47;;;0.80;99.90;;;;;;5000330;28;20177;-72
2022/11/19 04:39:27;;;;;;;26.10;18.60;;;0.70;99.90;;;;;;4980256;28;20195;-72
2022/11/19 04:41:53;;;;;;;26.30;17.27;;;0.70;99.90;;;;;;4990452;28;20184;-72
2022/11/19 04:44:18;;;;;;;25.17;17.27;;;0.60;99.90;;;;;;4990769;28;20221;-72
2022/11/19 04:46:44;;;;;;;27.70;18.40;;;0.60;99.90;;;;;;4990101;28;20182;-71
2022/11/19 04:49:09;;;;;;;25.93;17.77;;;0.70;99.90;;;;;;4990103;28;20554;-71
2022/11/19 04:51:35;;;;;;;27.07;18.37;;;0.70;99.90;;;;;;4989783;28;20182;-71
2022/11/19 04:54:01;;;;;;;24.57;17.93;;;0.70;99.90;;;;;;4984887;28;21019;-71
2022/11/19 04:56:26;;;;;;;24.03;17.40;;;0.60;99.90;;;;;;4986303;28;20560;-72
2022/11/19 04:58:52;;;;;;;20.43;15.00;;;0.60;99.90;;;;;;4989924;28;20560;-71
2022/11/19 05:01:19;;;;;;;24.10;17.33;;;0.70;99.90;;;;;;4990618;28;20214;-71
2022/11/19 05:03:46;;;;;;;24.70;17.80;;;0.70;99.90;;;;;;4992827;28;20189;-71
2022/11/19 05:06:12;;;;;;;25.70;18.63;;;0.70;99.90;;;;;;4992322;28;20186;-71
2022/11/19 05:08:37;;;;;;;24.97;18.07;;;0.70;99.90;;;;;;4991436;28;20535;-71
2022/11/19 05:11:03;;;;;;;26.43;17.70;;;0.70;99.90;;;;;;4991674;28;20185;-71
2022/11/19 05:13:29;;;;;;;23.43;17.43;;;0.60;99.90;;;;;;4996089;28;20532;-71
2022/11/19 05:15:54;;;;;;;24.53;17.50;;;0.70;99.90;;;;;;4987814;28;20186;-72
2022/11/19 05:18:20;;;;;;;20.73;15.67;;;0.70;99.90;;;;;;4990385;28;20216;-71
2022/11/19 05:20:46;;;;;;;22.83;16.83;;;0.70;99.90;;;;;;5009856;28;20188;-72
2022/11/19 05:23:12;;;;;;;27.20;18.23;;;0.70;99.90;;;;;;4987383;28;20190;-71
2022/11/19 05:25:37;;;;;;;26.37;18.43;;;0.80;99.90;;;;;;4991652;28;20192;-72
2022/11/19 05:28:03;;;;;;;23.03;16.47;;;0.70;99.90;;;;;;4993845;28;20185;-72
2022/11/19 05:30:29;;;;;;;25.17;18.13;;;0.70;99.90;;;;;;4995271;28;20645;-72
2022/11/19 05:32:54;;;;;;;23.47;18.50;;;0.70;99.90;;;;;;4995759;28;20197;-72
2022/11/19 05:35:20;;;;;;;20.37;16.63;;;0.70;99.90;;;;;;4998726;28;20574;-72
2022/11/19 05:37:50;;;;;;;23.30;17.10;;;0.70;99.90;;;;;;4998667;28;20304;-71
2022/11/19 05:40:16;;;;;;;21.63;16.40;;;0.70;99.90;;;;;;4998224;28;20182;-72
2022/11/19 05:42:42;;;;;;;23.93;17.67;;;0.70;99.90;;;;;;4989137;28;20198;-72
2022/11/19 05:45:08;;;;;;;20.80;16.53;;;0.70;99.90;;;;;;4994646;28;20663;-71
2022/11/19 05:47:34;;;;;;;23.70;16.10;;;0.60;99.90;;;;;;4992736;28;20257;-71
2022/11/19 05:49:59;;;;;;;20.47;16.43;;;0.70;99.90;;;;;;4997287;28;20285;-71
2022/11/19 05:52:25;;;;;;;23.53;17.40;;;0.70;99.90;;;;;;4997985;28;20280;-71
2022/11/19 05:54:50;;;;;;;22.70;16.27;;;0.70;99.90;;;;;;5001576;28;20280;-71
2022/11/19 05:57:16;;;;;;;22.50;17.53;;;0.70;99.90;;;;;;4995705;28;20599;-71
2022/11/19 05:59:42;;;;;;;19.83;14.80;;;0.80;99.90;;;;;;4993331;28;20209;-71
2022/11/19 06:02:07;;;;;;;23.23;17.97;;;0.90;99.90;;;;;;4993539;28;20182;-71
2022/11/19 06:04:33;;;;;;;20.17;16.53;;;0.90;99.90;;;;;;4989354;28;20295;-71
2022/11/19 06:06:58;;;;;;;20.77;15.83;;;0.80;99.90;;;;;;4988535;28;20185;-71
2022/11/19 06:09:24;;;;;;;22.17;16.17;;;0.80;99.90;;;;;;4992622;28;20181;-72
2022/11/19 06:11:50;;;;;;;20.83;16.87;;;0.80;99.90;;;;;;4989419;28;20175;-71
2022/11/19 06:14:23;;;;;;;20.17;16.27;;;0.80;99.90;;;;;;4990640;28;20356;-72
2022/11/19 06:16:59;;;;;;;20.77;16.93;;;0.70;99.90;;;;;;4999542;28;20672;-72
2022/11/19 06:19:25;;;;;;;21.23;16.10;;;0.80;99.90;;;;;;4994617;28;20814;-72
2022/11/19 06:21:52;;;;;;;21.10;17.27;;;0.80;99.90;;;;;;4994317;28;20178;-71
2022/11/19 06:24:17;;;;;;;23.60;16.87;;;0.90;99.90;;;;;;4988952;28;20225;-74
2022/11/19 06:26:43;;;;;;;21.47;16.30;;;0.80;99.90;;;;;;4996724;28;20259;-73
2022/11/19 06:29:12;;;;;;;22.03;16.47;;;0.80;99.90;;;;;;4993966;28;20174;-74
2022/11/19 06:31:38;;;;;;;20.00;14.90;;;0.80;99.90;;;;;;4998946;28;20281;-73
2022/11/19 06:34:04;;;;;;;24.37;18.00;;;0.80;99.90;;;;;;4986443;28;20222;-73
2022/11/19 06:36:29;;;;;;;24.20;17.87;;;0.70;99.90;;;;;;5001219;28;20647;-73
2022/11/19 06:38:55;;;;;;;22.70;17.97;;;0.70;99.90;;;;;;4997734;28;20174;-73
2022/11/19 06:41:20;;;;;;;21.70;16.17;;;0.80;99.90;;;;;;4991915;28;20222;-73
2022/11/19 06:43:46;;;;;;;22.43;17.07;;;0.80;99.90;;;;;;4994616;28;20304;-72
2022/11/19 06:46:12;;;;;;;22.30;18.27;;;0.70;99.90;;;;;;4993914;28;20186;-73
2022/11/19 06:48:38;;;;;;;21.40;16.67;;;0.70;99.90;;;;;;5002283;28;20240;-73
2022/11/19 06:51:04;;;;;;;21.97;16.77;;;0.70;99.90;;;;;;4995566;28;20175;-74
2022/11/19 06:53:30;;;;;;;21.10;16.57;;;0.80;99.90;;;;;;4998430;28;20212;-72
2022/11/19 06:56:01;;;;;;;22.13;17.30;;;0.80;99.90;;;;;;5001924;28;20173;-73
2022/11/19 06:58:27;;;;;;;18.73;15.27;;;0.80;99.90;;;;;;4992849;28;20209;-72
2022/11/19 07:00:53;;;;;;;20.67;16.97;;;0.80;99.90;;;;;;4998185;28;20579;-72
2022/11/19 07:03:19;;;;;;;24.13;18.47;;;0.80;99.90;;;;;;5000744;28;20197;-72
2022/11/19 07:05:48;;;;;;;22.77;17.23;;;0.70;99.90;;;;;;4995834;28;20182;-74
2022/11/19 07:08:15;;;;;;;21.97;17.30;;;0.80;99.90;;;;;;4991570;28;20238;-73
2022/11/19 07:10:40;;;;;;;22.70;17.07;;;0.80;99.90;;;;;;4993288;28;20205;-72
2022/11/19 07:13:06;;;;;;;25.10;17.57;;;0.80;99.90;;;;;;4989652;28;20676;-72
2022/11/19 07:15:32;;;;;;;22.92;18.15;;;0.80;99.90;;;;;;4991670;28;20205;-72
2022/11/19 07:17:57;;;;;;;23.37;18.03;;;0.80;99.90;;;;;;4994211;28;20679;-72
2022/11/19 07:20:23;;;;;;;24.23;18.97;;;0.80;99.90;;;;;;4989929;28;20186;-72
2022/11/19 07:22:48;;;;;;;23.97;18.47;;;0.80;99.90;;;;;;4993009;28;20580;-72
2022/11/19 07:25:14;;;;;;;25.67;19.70;;;0.70;99.90;;;;;;4993089;28;20676;-71
2022/11/19 07:27:42;;;;;;;26.33;18.93;;;0.70;99.90;;;;;;4993186;28;20177;-72
2022/11/19 07:30:09;;;;;;;28.23;18.07;;;0.80;99.90;;;;;;4991924;28;20182;-72
2022/11/19 07:32:35;;;;;;;24.90;18.60;;;0.70;99.90;;;;;;4991506;28;20214;-72
2022/11/19 07:35:01;;;;;;;25.23;18.37;;;0.90;99.90;;;;;;4991520;28;20571;-71
2022/11/19 07:37:26;;;;;;;27.50;18.83;;;0.90;99.90;;;;;;4994486;28;20182;-72
2022/11/19 07:39:52;;;;;;;25.37;18.40;;;0.80;99.90;;;;;;4991892;28;20539;-72
2022/11/19 07:45:02;;;;;;;24.03;18.97;;;0.90;99.90;;;;;;4986092;28;20619;-72
2022/11/19 07:47:28;;;;;;;24.00;18.00;;;0.90;99.90;;;;;;4992445;28;20213;-73
2022/11/19 07:49:54;;;;;;;21.97;17.70;;;1.00;99.90;;;;;;4983350;28;20198;-73
2022/11/19 07:52:20;;;;;;;23.20;18.17;;;0.90;99.90;;;;;;4984323;28;20587;-73
2022/11/19 07:54:47;;;;;;;23.67;18.73;;;0.90;99.90;;;;;;4983910;28;20287;-73
2022/11/19 07:57:13;;;;;;;23.48;18.27;;;1.00;99.90;;;;;;4983243;28;20673;-73
2022/11/19 07:59:38;;;;;;;24.33;19.03;;;1.00;99.90;;;;;;4984602;28;20178;-73
2022/11/19 08:02:04;;;;;;;24.67;19.27;;;1.00;99.90;;;;;;4983529;28;20213;-73
2022/11/19 08:04:30;;;;;;;24.63;18.67;;;0.90;99.90;;;;;;4991136;28;20226;-73
2022/11/19 08:06:55;;;;;;;24.67;18.58;;;1.00;99.90;;;;;;4987714;28;20247;-73
2022/11/19 08:09:21;;;;;;;24.08;17.95;;;1.10;99.90;;;;;;4984633;28;20677;-73
2022/11/19 08:11:47;;;;;;;24.87;17.93;;;1.20;99.90;;;;;;4986453;28;20607;-73
2022/11/19 08:14:13;;;;;;;23.65;19.02;;;1.10;99.90;;;;;;4990193;28;20221;-73
2022/11/19 08:19:24;;;;;;;23.60;18.23;;;1.30;99.90;;;;;;4986717;28;20289;-75
2022/11/19 08:21:49;;;;;;;21.50;17.10;;;1.30;99.90;;;;;;4991839;28;20268;-79
2022/11/19 08:24:18;;;;;;;22.57;17.80;;;1.20;99.90;;;;;;4991633;28;20206;-81
2022/11/19 08:26:44;;;;;;;22.75;17.80;;;1.40;99.90;;;;;;4992245;28;20182;-76
2022/11/19 08:29:13;;;;;;;21.17;16.58;;;1.40;99.90;;;;;;4991375;28;20239;-78
2022/11/19 08:31:39;;;;;;;23.98;17.67;;;1.40;99.90;;;;;;4993803;28;20178;-76
2022/11/19 08:34:05;;;;;;;20.13;17.23;;;1.40;99.90;;;;;;4995916;28;20600;-73
2022/11/19 08:36:31;;;;;;;24.27;18.45;;;1.50;99.90;;;;;;4987128;28;20190;-72
2022/11/19 08:38:57;;;;;;;22.88;18.05;;;1.50;99.90;;;;;;4994568;28;20178;-74
2022/11/19 08:44:08;;;;;;;21.33;17.73;;;1.50;99.90;;;;;;5007136;28;20228;-71
2022/11/19 08:46:33;;;;;;;19.63;16.63;;;1.50;99.90;;;;;;5006886;28;20211;-71
2022/11/19 08:48:59;;;;;;;22.65;16.85;;;1.50;99.90;;;;;;4999014;28;20568;-76
2022/11/19 08:51:25;;;;;;;21.02;16.33;;;1.60;99.90;;;;;;4995269;28;20182;-71
2022/11/19 08:53:51;;;;;;;21.15;17.15;;;1.50;99.90;;;;;;4997928;28;20236;-72
2022/11/19 08:56:18;;;;;;;21.08;16.55;;;1.60;99.90;;;;;;4994189;28;20193;-73
2022/11/19 08:58:43;;;;;;;21.25;17.23;;;1.60;99.90;;;;;;4989270;28;20689;-73
2022/11/19 09:01:10;;;;;;;22.85;17.23;;;1.60;99.90;;;;;;4990187;28;20316;-73
2022/11/19 09:03:36;;;;;;;21.85;17.48;;;1.50;99.90;;;;;;4990317;28;20202;-73
2022/11/19 09:06:03;;;;;;;20.40;17.08;;;1.40;99.90;;;;;;4990917;28;20189;-73
2022/11/19 09:08:29;;;;;;;22.83;16.73;;;1.40;99.90;;;;;;4990720;28;20550;-73
2022/11/19 09:10:55;;;;;;;23.40;19.30;;;1.30;99.90;;;;;;4987065;28;20221;-73
2022/11/19 09:13:20;;;;;;;22.35;17.15;;;1.40;99.90;;;;;;4993746;28;20288;-74
2022/11/19 09:15:50;;;;;;;21.75;17.20;;;1.40;99.90;;;;;;5006699;28;20775;-73
2022/11/19 09:18:15;;;;;;;21.05;16.73;;;1.60;99.90;;;;;;4990844;28;20217;-72
2022/11/19 09:20:41;;;;;;;20.00;16.30;;;1.60;99.90;;;;;;4987188;28;20213;-73
2022/11/19 09:23:07;;;;;;;20.88;17.23;;;1.70;99.90;;;;;;4995283;28;20177;-75
2022/11/19 09:25:33;;;;;;;21.98;17.70;;;1.90;99.90;;;;;;4998065;28;20232;-73
2022/11/19 09:27:59;;;;;;;19.83;15.90;;;2.00;99.90;;;;;;4997964;28;20197;-73
2022/11/19 09:30:24;;;;;;;20.48;16.45;;;2.00;99.90;;;;;;5007825;28;20643;-73
2022/11/19 09:32:50;;;;;;;21.38;17.15;;;2.10;99.90;;;;;;4993580;28;20214;-72
2022/11/19 09:35:16;;;;;;;18.65;15.73;;;2.10;99.90;;;;;;4992713;28;20337;-73
2022/11/19 09:37:41;;;;;;;17.95;14.88;;;2.20;99.90;;;;;;4984756;28;20194;-72
2022/11/19 09:40:13;;;;;;;24.35;18.13;;;2.30;99.90;;;;;;4994881;28;20170;-73
2022/11/19 09:42:57;;;;;;;22.15;16.58;;;2.30;99.90;;;;;;4994350;28;20194;-73
2022/11/19 09:45:41;;;;;;;19.60;16.25;;;2.30;99.90;;;;;;4994611;28;20691;-72
2022/11/19 09:48:30;;;;;;;19.63;16.08;;;2.60;99.90;;;;;;4997628;28;20573;-72
2022/11/19 09:51:03;;;;;;;18.83;15.85;;;2.50;99.90;;;;;;4988688;28;20542;-72
2022/11/19 09:53:34;;;;;;;20.63;16.75;;;2.60;99.90;;;;;;4987784;28;20344;-72
2022/11/19 09:56:00;;;;;;;18.48;14.65;;;2.40;99.90;;;;;;5003914;28;20240;-73
2022/11/19 09:58:40;;;;;;;19.90;15.57;;;2.50;99.90;;;;;;4993188;28;20181;-72
2022/11/19 10:01:09;;;;;;;18.70;15.98;;;2.40;99.90;;;;;;5002393;28;20691;-72
2022/11/19 10:03:39;;;;;;;16.95;14.18;;;2.30;99.90;;;;;;4993855;28;20202;-72
2022/11/19 10:06:13;;;;;;;17.27;15.02;;;2.60;99.90;;;;;;4999559;28;20189;-72
2022/11/19 10:09:02;;;;;;;16.70;14.10;;;2.80;99.90;;;;;;4999311;28;20188;-72
2022/11/19 10:11:44;;;;;;;17.17;15.05;;;2.90;99.90;;;;;;4991953;28;20561;-72
2022/11/19 10:14:18;;;;;;;18.92;14.32;;;3.20;99.90;;;;;;4990076;28;20661;-72
2022/11/19 10:17:19;;;;;;;16.15;13.90;;;3.40;99.90;;;;;;4995182;28;20188;-73
2022/11/19 10:20:03;;;;;;;16.25;14.07;;;3.40;99.90;;;;;;4933197;28;20928;-72
2022/11/19 10:22:47;;;;;;;15.68;13.13;;;3.30;99.90;;;;;;4987090;28;20194;-72
2022/11/19 10:25:27;;;;;;;16.20;13.35;;;3.20;99.90;;;;;;4999247;28;20198;-72
2022/11/19 10:27:59;;;;;;;17.05;14.77;;;3.20;99.90;;;;;;4994629;28;20193;-72
2022/11/19 10:30:28;;;;;;;15.98;13.80;;;3.50;99.90;;;;;;4997670;28;20692;-73
2022/11/19 10:33:04;;;;;;;15.10;13.07;;;3.70;99.90;;;;;;4995581;28;21070;-72
2022/11/19 10:35:41;;;;;;;15.70;13.27;;;3.80;99.90;;;;;;4999872;28;20204;-72
2022/11/19 10:38:25;;;;;;;16.02;12.50;;;3.70;99.90;;;;;;4995840;28;20177;-72
2022/11/19 10:41:00;;;;;;;15.68;12.68;;;3.50;99.90;;;;;;4993276;28;20632;-72
2022/11/19 10:43:31;;;;;;;15.18;13.25;;;3.30;99.90;;;;;;4990244;28;20271;-71
2022/11/19 10:45:59;;;;;;;14.52;13.02;;;3.30;99.90;;;;;;5000009;28;20178;-72
2022/11/19 10:48:36;;;;;;;14.70;12.43;;;3.30;99.90;;;;;;4994727;28;20185;-72
2022/11/19 10:51:13;;;;;;;14.48;12.90;;;3.20;99.90;;;;;;5001846;28;20181;-72
2022/11/19 10:53:41;;;;;;;17.50;14.15;;;3.00;99.90;;;;;;4992637;28;20240;-72
2022/11/19 10:56:22;;;;;;;14.38;12.48;;;3.30;99.90;;;;;;5005657;28;20256;-72
2022/11/19 10:58:52;;;;;;;14.18;12.40;;;3.30;99.90;;;;;;4989208;28;20182;-72
2022/11/19 11:01:39;;;;;;;15.77;13.77;;;3.30;99.90;;;;;;4993748;28;20551;-72
2022/11/19 11:04:21;;;;;;;15.98;13.65;;;3.10;99.90;;;;;;4995566;28;20237;-73
2022/11/19 11:06:56;;;;;;;16.52;13.25;;;3.10;99.90;;;;;;4994313;28;20185;-71
2022/11/19 11:09:38;;;;;;;15.63;13.23;;;3.20;99.90;;;;;;4991536;28;20200;-73
2022/11/19 11:15:16;;;;;;;15.45;12.98;;;3.00;99.90;;;;;;4993023;28;20243;-72
2022/11/19 11:17:44;;;;;;;15.63;13.15;;;2.90;99.90;;;;;;4991098;28;20188;-72
2022/11/19 11:20:16;;;;;;;13.13;11.75;;;3.00;99.90;;;;;;4993291;28;20166;-72
2022/11/19 11:22:43;;;;;;;16.00;13.35;;;2.80;99.90;;;;;;4993097;28;20182;-70
2022/11/19 11:25:27;;;;;;;16.20;13.50;;;2.70;99.90;;;;;;4985890;28;20193;-73
2022/11/19 11:28:17;;;;;;;13.77;11.90;;;2.50;99.90;;;;;;4984503;28;20276;-72
2022/11/19 11:30:59;;;;;;;14.98;12.80;;;2.50;99.90;;;;;;4998565;28;20178;-73
2022/11/19 11:33:40;;;;;;;14.38;12.32;;;2.70;99.90;;;;;;4989504;28;20551;-73
2022/11/19 11:36:13;;;;;;;16.92;13.75;;;2.80;99.90;;;;;;4992118;28;20681;-73
2022/11/19 11:38:50;;;;;;;16.08;13.07;;;3.00;99.90;;;;;;4997962;28;20220;-73
2022/11/19 11:41:19;;;;;;;15.25;13.15;;;2.90;99.90;;;;;;4992737;28;20186;-73
2022/11/19 11:44:03;;;;;;;15.07;13.32;;;3.00;99.90;;;;;;4982988;28;20214;-73
2022/11/19 11:46:35;;;;;;;13.50;12.10;;;3.30;99.90;;;;;;4991394;28;20193;-72
2022/11/19 11:49:02;;;;;;;15.13;12.82;;;3.20;99.90;;;;;;4992666;28;20575;-72
2022/11/19 11:51:38;;;;;;;14.02;12.32;;;3.30;99.90;;;;;;4987503;28;20257;-72
2022/11/19 11:54:17;;;;;;;14.70;12.68;;;3.30;99.90;;;;;;4992459;28;20679;-72
2022/11/19 11:56:43;;;;;;;16.05;13.57;;;3.30;99.90;;;;;;4992221;28;20539;-73
2022/11/19 11:59:24;;;;;;;16.25;13.68;;;3.30;99.90;;;;;;4985169;28;20170;-73
2022/11/19 12:02:05;;;;;;;15.88;13.60;;;3.30;99.90;;;;;;4984813;28;20165;-74
2022/11/19 12:04:32;;;;;;;15.75;12.75;;;3.10;99.90;;;;;;4998005;28;21507;-73
2022/11/19 12:07:36;;;;;;;15.57;12.68;;;3.00;99.90;;;;;;4989433;28;20186;-73
2022/11/19 12:10:02;;;;;;;16.30;13.70;;;3.20;99.90;;;;;;4985232;28;20182;-73
2022/11/19 12:12:39;;;;;;;15.88;12.35;;;3.10;99.90;;;;;;4988509;28;20673;-73
2022/11/19 12:15:08;;;;;;;18.55;13.35;;;3.10;99.90;;;;;;4984254;28;20576;-73
2022/11/19 12:17:55;;;;;;;15.10;13.00;;;3.10;99.90;;;;;;4983007;28;20225;-72
2022/11/19 12:20:43;;;;;;;15.68;12.95;;;3.00;99.90;;;;;;5000645;28;20212;-73
2022/11/19 12:23:56;;;;;;;15.25;13.65;;;2.80;99.90;;;;;;4989073;28;20332;-72
2022/11/19 12:26:58;;;;;;;15.65;12.68;;;2.90;99.90;;;;;;4980696;28;20666;-75
2022/11/19 12:29:38;;;;;;;14.00;12.45;;;2.90;99.90;;;;;;4996605;28;20304;-72
2022/11/19 12:32:18;;;;;;;13.15;11.75;;;2.90;99.90;;;;;;4990052;28;20225;-73
2022/11/19 12:34:43;;;;;;;12.65;11.15;;;2.80;99.90;;;;;;4985644;28;20767;-73
2022/11/19 12:37:45;;;;;;;14.55;12.30;;;2.90;99.90;;;;;;4987705;28;20253;-73
2022/11/19 12:40:38;;;;;;;13.93;12.30;;;2.80;99.90;;;;;;4987483;28;20450;-72
2022/11/19 12:43:22;;;;;;;14.85;12.40;;;2.60;99.90;;;;;;4984234;28;20304;-72
2022/11/19 12:45:54;;;;;;;13.73;12.18;;;2.60;99.90;;;;;;4979470;28;20273;-73
2022/11/19 12:48:28;;;;;;;14.93;13.07;;;2.50;99.90;;;;;;4990334;28;20197;-73
2022/11/19 12:51:21;;;;;;;15.60;12.68;;;2.50;99.90;;;;;;4990584;28;20185;-73
2022/11/19 12:54:16;;;;;;;12.95;11.57;;;2.70;99.90;;;;;;4989820;28;20292;-72
2022/11/19 12:57:15;;;;;;;14.40;11.48;;;2.70;99.90;;;;;;4997884;28;20511;-73
2022/11/19 13:00:12;;;;;;;14.18;12.68;;;2.90;99.90;;;;;;4998241;28;20663;-72
2022/11/19 13:03:02;;;;;;;12.82;11.23;;;3.00;99.90;;;;;;4989096;28;20185;-73
2022/11/19 13:05:42;;;;;;;13.98;11.95;;;3.10;99.90;;;;;;4998822;28;20205;-73
2022/11/19 13:08:17;;;;;;;13.52;12.13;;;3.20;99.90;;;;;;5004587;28;20169;-73
2022/11/19 13:10:55;;;;;;;12.85;11.38;;;3.20;99.90;;;;;;4990689;28;20188;-75
2022/11/19 13:13:25;;;;;;;12.38;11.18;;;2.80;99.90;;;;;;4988486;28;20221;-72
2022/11/19 13:16:11;;;;;;;13.25;11.50;;;2.60;99.90;;;;;;4995248;28;20515;-72
2022/11/19 13:18:40;;;;;;;12.95;11.60;;;2.80;99.90;;;;;;4995593;28;20177;-70
2022/11/19 13:21:30;;;;;;;12.95;11.55;;;3.00;99.90;;;;;;4992292;28;20588;-72
2022/11/19 13:24:02;;;;;;;12.20;10.90;;;3.10;99.90;;;;;;4973207;28;20224;-72
2022/11/19 13:26:34;;;;;;;14.15;11.48;;;3.20;99.90;;;;;;4996479;28;20224;-71